sensor_id;sensor_type;location;lat;lon;timestamp;P1;durP1;ratioP1;P2;durP2;ratioP2
51224;SDS011;37298;42.688;23.312;2023-02-28T00:01:11;23.45;;;14.75;;
51224;SDS011;37298;42.688;23.312;2023-02-28T00:03:39;26.02;;;13.68;;
51224;SDS011;37298;42.688;23.312;2023-02-28T00:06:06;22.63;;;11.70;;
51224;SDS011;37298;42.688;23.312;2023-02-28T00:11:01;19.48;;;13.10;;
51224;SDS011;37298;42.688;23.312;2023-02-28T00:13:30;19.40;;;12.50;;
51224;SDS011;37298;42.688;23.312;2023-02-28T00:16:00;22.75;;;13.52;;
51224;SDS011;37298;42.688;23.312;2023-02-28T00:18:27;21.98;;;13.57;;
51224;SDS011;37298;42.688;23.312;2023-02-28T00:20:54;25.17;;;13.48;;
51224;SDS011;37298;42.688;23.312;2023-02-28T00:23:20;21.15;;;14.25;;
51224;SDS011;37298;42.688;23.312;2023-02-28T00:25:48;20.52;;;12.80;;
51224;SDS011;37298;42.688;23.312;2023-02-28T00:28:14;19.15;;;12.18;;
51224;SDS011;37298;42.688;23.312;2023-02-28T00:30:42;19.80;;;12.73;;
51224;SDS011;37298;42.688;23.312;2023-02-28T00:33:09;20.23;;;13.68;;
51224;SDS011;37298;42.688;23.312;2023-02-28T00:35:36;19.73;;;12.27;;
51224;SDS011;37298;42.688;23.312;2023-02-28T00:38:03;20.17;;;12.70;;
51224;SDS011;37298;42.688;23.312;2023-02-28T00:40:31;18.48;;;11.90;;
51224;SDS011;37298;42.688;23.312;2023-02-28T00:42:57;20.05;;;13.30;;
51224;SDS011;37298;42.688;23.312;2023-02-28T00:45:24;21.27;;;12.52;;
51224;SDS011;37298;42.688;23.312;2023-02-28T00:47:52;19.65;;;13.25;;
51224;SDS011;37298;42.688;23.312;2023-02-28T00:50:19;21.25;;;12.90;;
51224;SDS011;37298;42.688;23.312;2023-02-28T00:52:46;22.67;;;13.88;;
51224;SDS011;37298;42.688;23.312;2023-02-28T00:55:13;30.35;;;16.92;;
51224;SDS011;37298;42.688;23.312;2023-02-28T00:57:40;26.63;;;17.10;;
51224;SDS011;37298;42.688;23.312;2023-02-28T01:00:09;37.33;;;20.90;;
51224;SDS011;37298;42.688;23.312;2023-02-28T01:02:36;34.22;;;20.23;;
51224;SDS011;37298;42.688;23.312;2023-02-28T01:05:05;30.63;;;19.92;;
51224;SDS011;37298;42.688;23.312;2023-02-28T01:09:58;32.97;;;21.02;;
51224;SDS011;37298;42.688;23.312;2023-02-28T01:12:25;37.15;;;20.65;;
51224;SDS011;37298;42.688;23.312;2023-02-28T01:14:52;33.13;;;20.88;;
51224;SDS011;37298;42.688;23.312;2023-02-28T01:17:20;35.22;;;21.45;;
51224;SDS011;37298;42.688;23.312;2023-02-28T01:19:47;32.17;;;20.77;;
51224;SDS011;37298;42.688;23.312;2023-02-28T01:22:15;35.33;;;22.05;;
51224;SDS011;37298;42.688;23.312;2023-02-28T01:24:42;33.60;;;20.27;;
51224;SDS011;37298;42.688;23.312;2023-02-28T01:27:11;38.20;;;21.90;;
51224;SDS011;37298;42.688;23.312;2023-02-28T01:29:38;35.67;;;20.83;;
51224;SDS011;37298;42.688;23.312;2023-02-28T01:32:05;33.38;;;19.88;;
51224;SDS011;37298;42.688;23.312;2023-02-28T01:34:34;31.30;;;18.73;;
51224;SDS011;37298;42.688;23.312;2023-02-28T01:37:02;32.80;;;20.27;;
51224;SDS011;37298;42.688;23.312;2023-02-28T01:39:31;32.55;;;19.77;;
51224;SDS011;37298;42.688;23.312;2023-02-28T01:41:58;34.20;;;19.63;;
51224;SDS011;37298;42.688;23.312;2023-02-28T01:47:11;34.03;;;20.95;;
51224;SDS011;37298;42.688;23.312;2023-02-28T01:49:38;37.47;;;22.88;;
51224;SDS011;37298;42.688;23.312;2023-02-28T01:52:05;37.67;;;21.70;;
51224;SDS011;37298;42.688;23.312;2023-02-28T01:54:34;41.78;;;24.85;;
51224;SDS011;37298;42.688;23.312;2023-02-28T01:57:03;39.28;;;22.75;;
51224;SDS011;37298;42.688;23.312;2023-02-28T01:59:31;42.30;;;23.25;;
51224;SDS011;37298;42.688;23.312;2023-02-28T02:04:27;42.80;;;20.75;;
51224;SDS011;37298;42.688;23.312;2023-02-28T02:06:58;41.85;;;21.67;;
51224;SDS011;37298;42.688;23.312;2023-02-28T02:09:25;46.17;;;24.98;;
51224;SDS011;37298;42.688;23.312;2023-02-28T02:11:53;41.03;;;22.88;;
51224;SDS011;37298;42.688;23.312;2023-02-28T02:14:26;48.22;;;24.17;;
51224;SDS011;37298;42.688;23.312;2023-02-28T02:17:02;42.38;;;22.40;;
51224;SDS011;37298;42.688;23.312;2023-02-28T02:19:41;38.72;;;21.92;;
51224;SDS011;37298;42.688;23.312;2023-02-28T02:22:19;47.08;;;23.02;;
51224;SDS011;37298;42.688;23.312;2023-02-28T02:24:52;44.53;;;22.48;;
51224;SDS011;37298;42.688;23.312;2023-02-28T02:27:27;40.88;;;21.15;;
51224;SDS011;37298;42.688;23.312;2023-02-28T02:32:58;42.92;;;23.05;;
51224;SDS011;37298;42.688;23.312;2023-02-28T02:35:31;47.30;;;25.08;;
51224;SDS011;37298;42.688;23.312;2023-02-28T02:38:00;44.35;;;22.35;;
51224;SDS011;37298;42.688;23.312;2023-02-28T02:40:32;46.70;;;22.63;;
51224;SDS011;37298;42.688;23.312;2023-02-28T02:43:01;47.13;;;23.83;;
51224;SDS011;37298;42.688;23.312;2023-02-28T02:45:31;45.28;;;24.00;;
51224;SDS011;37298;42.688;23.312;2023-02-28T02:48:01;50.28;;;22.75;;
51224;SDS011;37298;42.688;23.312;2023-02-28T02:50:29;48.25;;;23.90;;
51224;SDS011;37298;42.688;23.312;2023-02-28T02:52:59;58.58;;;26.52;;
51224;SDS011;37298;42.688;23.312;2023-02-28T02:55:28;56.25;;;26.73;;
51224;SDS011;37298;42.688;23.312;2023-02-28T02:57:57;55.40;;;24.63;;
51224;SDS011;37298;42.688;23.312;2023-02-28T03:00:26;92.00;;;25.70;;
51224;SDS011;37298;42.688;23.312;2023-02-28T03:02:56;76.40;;;26.88;;
51224;SDS011;37298;42.688;23.312;2023-02-28T03:05:23;79.75;;;29.80;;
51224;SDS011;37298;42.688;23.312;2023-02-28T03:07:51;72.55;;;29.00;;
51224;SDS011;37298;42.688;23.312;2023-02-28T03:10:30;145.63;;;25.02;;
51224;SDS011;37298;42.688;23.312;2023-02-28T03:13:00;290.70;;;31.45;;
51224;SDS011;37298;42.688;23.312;2023-02-28T03:15:30;146.30;;;29.67;;
51224;SDS011;37298;42.688;23.312;2023-02-28T03:18:01;213.65;;;31.65;;
51224;SDS011;37298;42.688;23.312;2023-02-28T03:20:35;178.65;;;28.80;;
51224;SDS011;37298;42.688;23.312;2023-02-28T03:23:10;68.38;;;26.50;;
51224;SDS011;37298;42.688;23.312;2023-02-28T03:25:43;48.10;;;20.75;;
51224;SDS011;37298;42.688;23.312;2023-02-28T03:28:14;37.13;;;21.05;;
51224;SDS011;37298;42.688;23.312;2023-02-28T03:30:44;40.17;;;20.50;;
51224;SDS011;37298;42.688;23.312;2023-02-28T03:33:17;37.40;;;20.08;;
51224;SDS011;37298;42.688;23.312;2023-02-28T03:35:49;42.45;;;21.98;;
51224;SDS011;37298;42.688;23.312;2023-02-28T03:38:19;43.38;;;22.95;;
51224;SDS011;37298;42.688;23.312;2023-02-28T03:40:50;42.78;;;22.83;;
51224;SDS011;37298;42.688;23.312;2023-02-28T03:43:18;46.35;;;22.17;;
51224;SDS011;37298;42.688;23.312;2023-02-28T03:48:13;43.20;;;22.10;;
51224;SDS011;37298;42.688;23.312;2023-02-28T03:50:42;47.58;;;23.13;;
51224;SDS011;37298;42.688;23.312;2023-02-28T03:53:10;35.83;;;18.17;;
51224;SDS011;37298;42.688;23.312;2023-02-28T03:55:39;37.55;;;22.00;;
51224;SDS011;37298;42.688;23.312;2023-02-28T04:00:35;38.08;;;21.42;;
51224;SDS011;37298;42.688;23.312;2023-02-28T04:03:04;40.40;;;22.80;;
51224;SDS011;37298;42.688;23.312;2023-02-28T04:05:31;47.58;;;23.75;;
51224;SDS011;37298;42.688;23.312;2023-02-28T04:08:03;43.10;;;23.05;;
51224;SDS011;37298;42.688;23.312;2023-02-28T04:10:29;45.28;;;23.40;;
51224;SDS011;37298;42.688;23.312;2023-02-28T04:12:56;40.83;;;23.05;;
51224;SDS011;37298;42.688;23.312;2023-02-28T04:15:23;40.75;;;22.85;;
51224;SDS011;37298;42.688;23.312;2023-02-28T04:17:51;39.25;;;22.67;;
51224;SDS011;37298;42.688;23.312;2023-02-28T04:20:18;39.58;;;22.00;;
51224;SDS011;37298;42.688;23.312;2023-02-28T04:22:45;42.72;;;22.90;;
51224;SDS011;37298;42.688;23.312;2023-02-28T04:25:11;43.97;;;23.25;;
51224;SDS011;37298;42.688;23.312;2023-02-28T04:27:38;46.58;;;21.55;;
51224;SDS011;37298;42.688;23.312;2023-02-28T04:30:06;44.60;;;21.95;;
51224;SDS011;37298;42.688;23.312;2023-02-28T04:32:32;40.45;;;21.63;;
51224;SDS011;37298;42.688;23.312;2023-02-28T04:35:01;53.45;;;23.02;;
51224;SDS011;37298;42.688;23.312;2023-02-28T04:37:28;47.80;;;23.17;;
51224;SDS011;37298;42.688;23.312;2023-02-28T04:39:55;50.00;;;22.90;;
51224;SDS011;37298;42.688;23.312;2023-02-28T04:42:22;44.92;;;22.10;;
51224;SDS011;37298;42.688;23.312;2023-02-28T04:44:48;58.45;;;24.25;;
51224;SDS011;37298;42.688;23.312;2023-02-28T04:47:15;53.85;;;25.58;;
51224;SDS011;37298;42.688;23.312;2023-02-28T04:49:42;52.92;;;23.85;;
51224;SDS011;37298;42.688;23.312;2023-02-28T04:52:10;45.33;;;22.63;;
51224;SDS011;37298;42.688;23.312;2023-02-28T04:54:38;49.42;;;24.40;;
51224;SDS011;37298;42.688;23.312;2023-02-28T04:57:05;48.60;;;23.50;;
51224;SDS011;37298;42.688;23.312;2023-02-28T04:59:32;44.00;;;23.25;;
51224;SDS011;37298;42.688;23.312;2023-02-28T05:01:59;47.53;;;22.65;;
51224;SDS011;37298;42.688;23.312;2023-02-28T05:04:32;49.97;;;25.45;;
51224;SDS011;37298;42.688;23.312;2023-02-28T05:06:59;53.45;;;26.42;;
51224;SDS011;37298;42.688;23.312;2023-02-28T05:09:45;61.35;;;27.45;;
51224;SDS011;37298;42.688;23.312;2023-02-28T05:12:12;58.75;;;26.98;;
51224;SDS011;37298;42.688;23.312;2023-02-28T05:14:39;56.58;;;28.33;;
51224;SDS011;37298;42.688;23.312;2023-02-28T05:17:05;48.28;;;23.85;;
51224;SDS011;37298;42.688;23.312;2023-02-28T05:19:32;46.03;;;23.42;;
51224;SDS011;37298;42.688;23.312;2023-02-28T05:21:59;42.33;;;23.08;;
51224;SDS011;37298;42.688;23.312;2023-02-28T05:24:26;51.88;;;24.88;;
51224;SDS011;37298;42.688;23.312;2023-02-28T05:26:54;50.95;;;25.92;;
51224;SDS011;37298;42.688;23.312;2023-02-28T05:29:21;51.13;;;24.05;;
51224;SDS011;37298;42.688;23.312;2023-02-28T05:31:48;43.20;;;22.65;;
51224;SDS011;37298;42.688;23.312;2023-02-28T05:34:15;51.35;;;25.73;;
51224;SDS011;37298;42.688;23.312;2023-02-28T05:36:42;56.75;;;25.15;;
51224;SDS011;37298;42.688;23.312;2023-02-28T05:39:09;47.15;;;25.55;;
51224;SDS011;37298;42.688;23.312;2023-02-28T05:41:39;45.88;;;25.05;;
51224;SDS011;37298;42.688;23.312;2023-02-28T05:44:08;42.05;;;22.80;;
51224;SDS011;37298;42.688;23.312;2023-02-28T05:46:35;40.70;;;20.40;;
51224;SDS011;37298;42.688;23.312;2023-02-28T05:49:03;42.88;;;22.20;;
51224;SDS011;37298;42.688;23.312;2023-02-28T05:51:30;40.53;;;20.83;;
51224;SDS011;37298;42.688;23.312;2023-02-28T05:54:00;44.25;;;21.90;;
51224;SDS011;37298;42.688;23.312;2023-02-28T05:56:27;42.75;;;23.08;;
51224;SDS011;37298;42.688;23.312;2023-02-28T05:58:54;39.78;;;22.27;;
51224;SDS011;37298;42.688;23.312;2023-02-28T06:01:24;47.55;;;23.75;;
51224;SDS011;37298;42.688;23.312;2023-02-28T06:03:50;38.95;;;20.92;;
51224;SDS011;37298;42.688;23.312;2023-02-28T06:06:17;40.05;;;22.25;;
51224;SDS011;37298;42.688;23.312;2023-02-28T06:08:44;36.10;;;21.80;;
51224;SDS011;37298;42.688;23.312;2023-02-28T06:11:11;39.55;;;22.17;;
51224;SDS011;37298;42.688;23.312;2023-02-28T06:13:37;46.10;;;23.23;;
51224;SDS011;37298;42.688;23.312;2023-02-28T06:16:05;42.78;;;23.55;;
51224;SDS011;37298;42.688;23.312;2023-02-28T06:18:33;36.65;;;21.75;;
51224;SDS011;37298;42.688;23.312;2023-02-28T06:21:00;39.95;;;23.00;;
51224;SDS011;37298;42.688;23.312;2023-02-28T06:23:27;38.55;;;23.48;;
51224;SDS011;37298;42.688;23.312;2023-02-28T06:25:54;38.35;;;21.38;;
51224;SDS011;37298;42.688;23.312;2023-02-28T06:28:23;39.60;;;21.80;;
51224;SDS011;37298;42.688;23.312;2023-02-28T06:30:51;38.33;;;21.75;;
51224;SDS011;37298;42.688;23.312;2023-02-28T06:33:17;41.38;;;23.33;;
51224;SDS011;37298;42.688;23.312;2023-02-28T06:35:46;43.97;;;23.35;;
51224;SDS011;37298;42.688;23.312;2023-02-28T06:38:13;47.28;;;25.40;;
51224;SDS011;37298;42.688;23.312;2023-02-28T06:40:43;44.17;;;24.33;;
51224;SDS011;37298;42.688;23.312;2023-02-28T06:43:10;41.85;;;23.33;;
51224;SDS011;37298;42.688;23.312;2023-02-28T06:45:41;39.50;;;22.77;;
51224;SDS011;37298;42.688;23.312;2023-02-28T06:48:08;49.30;;;24.13;;
51224;SDS011;37298;42.688;23.312;2023-02-28T06:50:36;33.65;;;20.95;;
51224;SDS011;37298;42.688;23.312;2023-02-28T06:53:04;34.80;;;20.02;;
51224;SDS011;37298;42.688;23.312;2023-02-28T06:55:31;32.42;;;19.50;;
51224;SDS011;37298;42.688;23.312;2023-02-28T06:57:58;33.80;;;18.70;;
51224;SDS011;37298;42.688;23.312;2023-02-28T07:00:25;30.65;;;19.58;;
51224;SDS011;37298;42.688;23.312;2023-02-28T07:02:52;33.20;;;20.17;;
51224;SDS011;37298;42.688;23.312;2023-02-28T07:05:20;38.97;;;21.70;;
51224;SDS011;37298;42.688;23.312;2023-02-28T07:07:47;35.55;;;20.70;;
51224;SDS011;37298;42.688;23.312;2023-02-28T07:10:15;38.70;;;21.40;;
51224;SDS011;37298;42.688;23.312;2023-02-28T07:12:43;47.67;;;24.75;;
51224;SDS011;37298;42.688;23.312;2023-02-28T07:15:10;42.30;;;22.80;;
51224;SDS011;37298;42.688;23.312;2023-02-28T07:17:37;42.45;;;23.73;;
51224;SDS011;37298;42.688;23.312;2023-02-28T07:20:04;44.85;;;25.15;;
51224;SDS011;37298;42.688;23.312;2023-02-28T07:22:31;46.75;;;25.05;;
51224;SDS011;37298;42.688;23.312;2023-02-28T07:24:58;37.17;;;21.70;;
51224;SDS011;37298;42.688;23.312;2023-02-28T07:27:26;37.83;;;22.90;;
51224;SDS011;37298;42.688;23.312;2023-02-28T07:29:53;35.13;;;20.98;;
51224;SDS011;37298;42.688;23.312;2023-02-28T07:32:20;39.15;;;21.95;;
51224;SDS011;37298;42.688;23.312;2023-02-28T07:34:47;30.83;;;19.55;;
51224;SDS011;37298;42.688;23.312;2023-02-28T07:37:14;35.63;;;21.45;;
51224;SDS011;37298;42.688;23.312;2023-02-28T07:39:40;39.45;;;19.75;;
51224;SDS011;37298;42.688;23.312;2023-02-28T07:42:08;40.05;;;20.60;;
51224;SDS011;37298;42.688;23.312;2023-02-28T07:44:39;33.50;;;20.77;;
51224;SDS011;37298;42.688;23.312;2023-02-28T07:47:07;41.60;;;21.90;;
51224;SDS011;37298;42.688;23.312;2023-02-28T07:49:35;40.08;;;22.05;;
51224;SDS011;37298;42.688;23.312;2023-02-28T07:52:02;49.38;;;23.75;;
51224;SDS011;37298;42.688;23.312;2023-02-28T07:54:29;40.65;;;22.70;;
51224;SDS011;37298;42.688;23.312;2023-02-28T07:56:56;37.17;;;22.33;;
51224;SDS011;37298;42.688;23.312;2023-02-28T07:59:22;40.15;;;23.15;;
51224;SDS011;37298;42.688;23.312;2023-02-28T08:01:51;42.85;;;23.30;;
51224;SDS011;37298;42.688;23.312;2023-02-28T08:04:17;26.00;;;16.17;;
51224;SDS011;37298;42.688;23.312;2023-02-28T08:06:44;36.78;;;21.77;;
51224;SDS011;37298;42.688;23.312;2023-02-28T08:09:11;35.78;;;19.75;;
51224;SDS011;37298;42.688;23.312;2023-02-28T08:11:38;38.22;;;20.60;;
51224;SDS011;37298;42.688;23.312;2023-02-28T08:14:04;34.08;;;21.88;;
51224;SDS011;37298;42.688;23.312;2023-02-28T08:16:31;39.42;;;21.45;;
51224;SDS011;37298;42.688;23.312;2023-02-28T08:18:59;37.08;;;21.40;;
51224;SDS011;37298;42.688;23.312;2023-02-28T08:21:26;28.77;;;16.85;;
51224;SDS011;37298;42.688;23.312;2023-02-28T08:23:53;32.63;;;20.88;;
51224;SDS011;37298;42.688;23.312;2023-02-28T08:26:22;33.00;;;21.20;;
51224;SDS011;37298;42.688;23.312;2023-02-28T08:28:48;35.03;;;22.27;;
51224;SDS011;37298;42.688;23.312;2023-02-28T08:31:16;36.47;;;21.17;;
51224;SDS011;37298;42.688;23.312;2023-02-28T08:33:43;43.08;;;23.00;;
51224;SDS011;37298;42.688;23.312;2023-02-28T08:36:12;44.13;;;22.02;;
51224;SDS011;37298;42.688;23.312;2023-02-28T08:38:38;37.20;;;22.52;;
51224;SDS011;37298;42.688;23.312;2023-02-28T08:41:06;44.28;;;23.70;;
51224;SDS011;37298;42.688;23.312;2023-02-28T08:43:34;36.55;;;22.67;;
51224;SDS011;37298;42.688;23.312;2023-02-28T08:46:01;37.38;;;24.23;;
51224;SDS011;37298;42.688;23.312;2023-02-28T08:48:29;34.65;;;23.27;;
51224;SDS011;37298;42.688;23.312;2023-02-28T08:50:57;39.35;;;23.90;;
51224;SDS011;37298;42.688;23.312;2023-02-28T08:53:25;39.20;;;22.80;;
51224;SDS011;37298;42.688;23.312;2023-02-28T08:55:55;45.70;;;24.40;;
51224;SDS011;37298;42.688;23.312;2023-02-28T08:58:22;38.33;;;24.17;;
51224;SDS011;37298;42.688;23.312;2023-02-28T09:00:50;46.33;;;25.73;;
51224;SDS011;37298;42.688;23.312;2023-02-28T09:03:16;37.60;;;24.25;;
51224;SDS011;37298;42.688;23.312;2023-02-28T09:05:51;40.75;;;25.30;;
51224;SDS011;37298;42.688;23.312;2023-02-28T09:08:17;42.22;;;24.83;;
51224;SDS011;37298;42.688;23.312;2023-02-28T09:10:46;47.03;;;26.98;;
51224;SDS011;37298;42.688;23.312;2023-02-28T09:13:12;53.50;;;27.88;;
51224;SDS011;37298;42.688;23.312;2023-02-28T09:15:39;45.90;;;27.75;;
51224;SDS011;37298;42.688;23.312;2023-02-28T09:18:06;63.35;;;34.97;;
51224;SDS011;37298;42.688;23.312;2023-02-28T09:20:33;61.92;;;34.60;;
51224;SDS011;37298;42.688;23.312;2023-02-28T09:22:59;74.80;;;38.40;;
51224;SDS011;37298;42.688;23.312;2023-02-28T09:25:27;70.70;;;37.30;;
51224;SDS011;37298;42.688;23.312;2023-02-28T09:27:55;66.13;;;34.13;;
51224;SDS011;37298;42.688;23.312;2023-02-28T09:30:22;65.57;;;33.63;;
51224;SDS011;37298;42.688;23.312;2023-02-28T09:32:49;63.10;;;32.65;;
51224;SDS011;37298;42.688;23.312;2023-02-28T09:35:17;55.70;;;31.97;;
51224;SDS011;37298;42.688;23.312;2023-02-28T09:37:44;62.78;;;34.05;;
51224;SDS011;37298;42.688;23.312;2023-02-28T09:40:12;59.65;;;31.60;;
51224;SDS011;37298;42.688;23.312;2023-02-28T09:42:40;58.97;;;31.08;;
51224;SDS011;37298;42.688;23.312;2023-02-28T09:45:11;54.25;;;31.17;;
51224;SDS011;37298;42.688;23.312;2023-02-28T09:47:40;66.03;;;33.13;;
51224;SDS011;37298;42.688;23.312;2023-02-28T09:50:11;64.32;;;34.42;;
51224;SDS011;37298;42.688;23.312;2023-02-28T09:52:41;60.28;;;32.55;;
51224;SDS011;37298;42.688;23.312;2023-02-28T09:55:19;68.88;;;34.67;;
51224;SDS011;37298;42.688;23.312;2023-02-28T09:57:46;60.97;;;33.33;;
51224;SDS011;37298;42.688;23.312;2023-02-28T10:02:50;60.92;;;33.30;;
51224;SDS011;37298;42.688;23.312;2023-02-28T10:08:10;52.00;;;27.20;;
51224;SDS011;37298;42.688;23.312;2023-02-28T10:10:39;61.05;;;32.63;;
51224;SDS011;37298;42.688;23.312;2023-02-28T10:13:11;58.50;;;26.90;;
51224;SDS011;37298;42.688;23.312;2023-02-28T10:15:39;47.45;;;25.50;;
51224;SDS011;37298;42.688;23.312;2023-02-28T10:18:09;33.45;;;17.10;;
51224;SDS011;37298;42.688;23.312;2023-02-28T10:20:38;31.92;;;14.38;;
51224;SDS011;37298;42.688;23.312;2023-02-28T10:23:09;30.60;;;14.75;;
51224;SDS011;37298;42.688;23.312;2023-02-28T10:25:38;28.38;;;13.80;;
51224;SDS011;37298;42.688;23.312;2023-02-28T10:28:09;38.42;;;15.43;;
51224;SDS011;37298;42.688;23.312;2023-02-28T10:30:37;29.00;;;13.50;;
51224;SDS011;37298;42.688;23.312;2023-02-28T10:33:04;21.75;;;12.13;;
51224;SDS011;37298;42.688;23.312;2023-02-28T10:35:32;26.08;;;12.30;;
51224;SDS011;37298;42.688;23.312;2023-02-28T10:38:00;31.02;;;12.88;;
51224;SDS011;37298;42.688;23.312;2023-02-28T10:40:31;29.00;;;12.00;;
51224;SDS011;37298;42.688;23.312;2023-02-28T10:42:59;26.27;;;12.05;;
51224;SDS011;37298;42.688;23.312;2023-02-28T10:45:27;26.43;;;11.67;;
51224;SDS011;37298;42.688;23.312;2023-02-28T10:47:56;28.10;;;12.90;;
51224;SDS011;37298;42.688;23.312;2023-02-28T10:50:27;22.30;;;11.65;;
51224;SDS011;37298;42.688;23.312;2023-02-28T10:52:55;27.20;;;11.65;;
51224;SDS011;37298;42.688;23.312;2023-02-28T10:55:30;25.77;;;10.63;;
51224;SDS011;37298;42.688;23.312;2023-02-28T10:57:59;23.80;;;10.90;;
51224;SDS011;37298;42.688;23.312;2023-02-28T11:00:25;24.23;;;11.38;;
51224;SDS011;37298;42.688;23.312;2023-02-28T11:02:59;24.42;;;11.38;;
51224;SDS011;37298;42.688;23.312;2023-02-28T11:05:27;19.00;;;11.35;;
51224;SDS011;37298;42.688;23.312;2023-02-28T11:07:57;23.65;;;10.80;;
51224;SDS011;37298;42.688;23.312;2023-02-28T11:10:26;24.20;;;10.60;;
51224;SDS011;37298;42.688;23.312;2023-02-28T11:12:55;25.92;;;10.30;;
51224;SDS011;37298;42.688;23.312;2023-02-28T11:15:23;32.50;;;10.45;;
51224;SDS011;37298;42.688;23.312;2023-02-28T11:17:53;21.58;;;11.27;;
51224;SDS011;37298;42.688;23.312;2023-02-28T11:20:21;24.88;;;11.25;;
51224;SDS011;37298;42.688;23.312;2023-02-28T11:22:49;27.00;;;11.45;;
51224;SDS011;37298;42.688;23.312;2023-02-28T11:25:19;28.23;;;12.53;;
51224;SDS011;37298;42.688;23.312;2023-02-28T11:27:48;24.27;;;11.48;;
51224;SDS011;37298;42.688;23.312;2023-02-28T11:30:29;22.53;;;11.73;;
51224;SDS011;37298;42.688;23.312;2023-02-28T11:32:56;42.42;;;11.32;;
51224;SDS011;37298;42.688;23.312;2023-02-28T11:35:24;20.77;;;10.32;;
51224;SDS011;37298;42.688;23.312;2023-02-28T11:37:52;24.50;;;10.75;;
51224;SDS011;37298;42.688;23.312;2023-02-28T11:40:21;31.33;;;10.65;;
51224;SDS011;37298;42.688;23.312;2023-02-28T11:42:54;24.48;;;10.90;;
51224;SDS011;37298;42.688;23.312;2023-02-28T11:45:33;28.38;;;12.30;;
51224;SDS011;37298;42.688;23.312;2023-02-28T11:48:04;32.67;;;11.77;;
51224;SDS011;37298;42.688;23.312;2023-02-28T11:50:41;20.23;;;12.13;;
51224;SDS011;37298;42.688;23.312;2023-02-28T11:53:14;24.98;;;12.02;;
51224;SDS011;37298;42.688;23.312;2023-02-28T11:55:45;24.40;;;11.18;;
51224;SDS011;37298;42.688;23.312;2023-02-28T11:58:27;28.08;;;12.77;;
51224;SDS011;37298;42.688;23.312;2023-02-28T12:03:44;23.25;;;11.65;;
51224;SDS011;37298;42.688;23.312;2023-02-28T12:06:20;26.88;;;12.20;;
51224;SDS011;37298;42.688;23.312;2023-02-28T12:09:00;25.42;;;12.90;;
51224;SDS011;37298;42.688;23.312;2023-02-28T12:11:38;32.28;;;13.02;;
51224;SDS011;37298;42.688;23.312;2023-02-28T12:16:52;19.30;;;10.85;;
51224;SDS011;37298;42.688;23.312;2023-02-28T12:19:20;23.45;;;12.73;;
51224;SDS011;37298;42.688;23.312;2023-02-28T12:21:55;30.57;;;12.67;;
51224;SDS011;37298;42.688;23.312;2023-02-28T12:24:29;26.17;;;10.68;;
51224;SDS011;37298;42.688;23.312;2023-02-28T12:27:05;30.02;;;12.82;;
51224;SDS011;37298;42.688;23.312;2023-02-28T12:29:34;26.10;;;10.93;;
51224;SDS011;37298;42.688;23.312;2023-02-28T12:32:05;28.20;;;12.18;;
51224;SDS011;37298;42.688;23.312;2023-02-28T12:34:33;27.27;;;11.55;;
51224;SDS011;37298;42.688;23.312;2023-02-28T12:37:03;34.47;;;13.65;;
51224;SDS011;37298;42.688;23.312;2023-02-28T12:39:34;27.95;;;11.40;;
51224;SDS011;37298;42.688;23.312;2023-02-28T12:42:05;28.98;;;12.82;;
51224;SDS011;37298;42.688;23.312;2023-02-28T12:44:34;25.48;;;12.10;;
51224;SDS011;37298;42.688;23.312;2023-02-28T12:47:02;25.50;;;13.30;;
51224;SDS011;37298;42.688;23.312;2023-02-28T12:49:31;36.35;;;13.07;;
51224;SDS011;37298;42.688;23.312;2023-02-28T12:51:59;29.15;;;12.15;;
51224;SDS011;37298;42.688;23.312;2023-02-28T12:54:28;18.63;;;11.52;;
51224;SDS011;37298;42.688;23.312;2023-02-28T12:57:00;23.42;;;11.63;;
51224;SDS011;37298;42.688;23.312;2023-02-28T12:59:33;19.60;;;9.65;;
51224;SDS011;37298;42.688;23.312;2023-02-28T13:02:09;37.42;;;11.20;;
51224;SDS011;37298;42.688;23.312;2023-02-28T13:07:40;32.60;;;12.20;;
51224;SDS011;37298;42.688;23.312;2023-02-28T13:10:14;22.98;;;11.05;;
51224;SDS011;37298;42.688;23.312;2023-02-28T13:12:47;23.38;;;10.43;;
51224;SDS011;37298;42.688;23.312;2023-02-28T13:15:18;28.48;;;10.23;;
51224;SDS011;37298;42.688;23.312;2023-02-28T13:17:50;18.33;;;9.88;;
51224;SDS011;37298;42.688;23.312;2023-02-28T13:22:45;28.55;;;10.63;;
51224;SDS011;37298;42.688;23.312;2023-02-28T13:33:22;20.90;;;11.10;;
51224;SDS011;37298;42.688;23.312;2023-02-28T13:35:50;24.90;;;11.35;;
51224;SDS011;37298;42.688;23.312;2023-02-28T13:43:59;25.85;;;11.18;;
51224;SDS011;37298;42.688;23.312;2023-02-28T13:46:26;23.10;;;12.00;;
51224;SDS011;37298;42.688;23.312;2023-02-28T13:48:54;25.23;;;10.88;;
51224;SDS011;37298;42.688;23.312;2023-02-28T13:54:12;18.23;;;8.95;;
51224;SDS011;37298;42.688;23.312;2023-02-28T13:56:42;24.95;;;10.25;;
51224;SDS011;37298;42.688;23.312;2023-02-28T13:59:16;21.13;;;9.90;;
51224;SDS011;37298;42.688;23.312;2023-02-28T14:01:52;18.10;;;9.95;;
51224;SDS011;37298;42.688;23.312;2023-02-28T14:04:37;32.08;;;14.05;;
51224;SDS011;37298;42.688;23.312;2023-02-28T14:07:07;26.65;;;11.35;;
51224;SDS011;37298;42.688;23.312;2023-02-28T14:09:35;23.73;;;11.10;;
51224;SDS011;37298;42.688;23.312;2023-02-28T14:14:54;18.65;;;9.35;;
51224;SDS011;37298;42.688;23.312;2023-02-28T14:17:21;21.90;;;10.70;;
51224;SDS011;37298;42.688;23.312;2023-02-28T14:19:49;24.02;;;11.13;;
51224;SDS011;37298;42.688;23.312;2023-02-28T14:22:23;17.70;;;9.50;;
51224;SDS011;37298;42.688;23.312;2023-02-28T14:25:05;22.20;;;10.77;;
51224;SDS011;37298;42.688;23.312;2023-02-28T14:27:41;24.63;;;10.77;;
51224;SDS011;37298;42.688;23.312;2023-02-28T14:30:14;25.05;;;11.57;;
51224;SDS011;37298;42.688;23.312;2023-02-28T14:32:44;22.98;;;11.13;;
51224;SDS011;37298;42.688;23.312;2023-02-28T14:35:16;25.45;;;10.65;;
51224;SDS011;37298;42.688;23.312;2023-02-28T14:37:46;21.67;;;10.02;;
51224;SDS011;37298;42.688;23.312;2023-02-28T14:40:14;24.00;;;10.85;;
51224;SDS011;37298;42.688;23.312;2023-02-28T14:42:46;24.10;;;12.10;;
51224;SDS011;37298;42.688;23.312;2023-02-28T14:45:17;31.17;;;11.45;;
51224;SDS011;37298;42.688;23.312;2023-02-28T14:47:44;34.25;;;11.38;;
51224;SDS011;37298;42.688;23.312;2023-02-28T14:50:18;20.25;;;11.25;;
51224;SDS011;37298;42.688;23.312;2023-02-28T14:52:46;31.98;;;11.50;;
51224;SDS011;37298;42.688;23.312;2023-02-28T14:55:14;24.17;;;10.52;;
51224;SDS011;37298;42.688;23.312;2023-02-28T14:57:42;25.85;;;11.02;;
51224;SDS011;37298;42.688;23.312;2023-02-28T15:00:20;21.15;;;9.43;;
51224;SDS011;37298;42.688;23.312;2023-02-28T15:02:47;22.55;;;10.07;;
51224;SDS011;37298;42.688;23.312;2023-02-28T15:05:19;24.70;;;10.52;;
51224;SDS011;37298;42.688;23.312;2023-02-28T15:07:46;21.95;;;9.85;;
51224;SDS011;37298;42.688;23.312;2023-02-28T15:10:16;29.67;;;12.18;;
51224;SDS011;37298;42.688;23.312;2023-02-28T15:12:47;23.58;;;9.50;;